Time;durP1;ratioP1;P1;durP2;ratioP2;P2;SDS_P1;SDS_P2;PMS_P1;PMS_P2;Temp;Humidity;BMP_temperature;BMP_pressure;BME280_temperature;BME280_humidity;BME280_pressure;Samples;Min_cycle;Max_cycle;Signal;HPM_P1;HPM_P2
2022/06/23 00:00:36;;;;;;;3.00;2.70;;;;;;;22.45;67.52;97029.38;6153832;23;20174;-88
2022/06/23 00:03:04;;;;;;;3.93;2.73;;;;;;;22.87;67.55;97106.13;6150229;23;20178;-89
2022/06/23 00:05:37;;;;;;;3.10;2.60;;;;;;;23.30;67.37;97180.41;6130211;23;20204;-88
2022/06/23 00:08:05;;;;;;;3.47;2.47;;;;;;;23.04;67.38;97136.34;6130543;23;20194;-87
2022/06/23 00:10:40;;;;;;;3.63;3.07;;;;;;;22.66;67.35;97069.91;6155614;23;20512;-88
2022/06/23 00:13:14;;;;;;;2.83;2.53;;;;;;;23.13;67.47;97148.47;6155811;23;20199;-87
2022/06/23 00:15:42;;;;;;;3.77;2.87;;;;;;;22.23;67.52;97000.81;6156769;23;20229;-87
2022/06/23 00:18:17;;;;;;;2.70;2.37;;;;;;;23.07;67.55;97149.19;6157136;23;20193;-87
2022/06/23 00:21:03;;;;;;;5.00;2.80;;;;;;;23.28;67.60;97190.66;6107658;23;20173;-87
2022/06/23 00:23:31;;;;;;;3.17;2.67;;;;;;;23.28;67.67;97193.22;6156347;23;20657;-87
2022/06/23 00:26:22;;;;;;;2.97;2.53;;;;;;;22.63;67.48;97069.84;6131732;23;20194;-88
2022/06/23 00:28:56;;;;;;;3.00;2.50;;;;;;;23.28;67.62;97182.97;6152953;23;20202;-87
2022/06/23 00:31:33;;;;;;;3.10;2.53;;;;;;;23.28;67.51;97187.22;6154441;23;20638;-87
2022/06/23 00:34:01;;;;;;;2.83;2.57;;;;;;;22.82;67.58;97112.88;6155135;23;20178;-88
2022/06/23 00:36:30;;;;;;;3.23;2.70;;;;;;;23.29;67.48;97187.25;6131427;23;20249;-87
2022/06/23 00:38:57;;;;;;;3.90;2.50;;;;;;;22.94;67.53;97125.91;6154378;23;20182;-87
2022/06/23 00:41:28;;;;;;;2.83;2.60;;;;;;;22.67;67.50;97074.16;6155089;23;20178;-88
2022/06/23 00:43:56;;;;;;;2.67;2.47;;;;;;;23.13;67.65;97153.59;6155382;23;20163;-88
2022/06/23 00:46:30;;;;;;;2.93;2.60;;;;;;;22.87;67.56;97111.25;6155452;23;20202;-87
2022/06/23 00:49:19;;;;;;;4.03;2.50;;;;;;;23.15;67.80;97165.59;6130146;23;20623;-87
2022/06/23 00:51:49;;;;;;;2.80;2.60;;;;;;;22.80;67.70;97110.28;6132514;23;20169;-88
2022/06/23 00:54:18;;;;;;;3.47;2.50;;;;;;;23.29;67.80;97194.06;6130509;23;20182;-87
2022/06/23 00:56:47;;;;;;;5.37;2.80;;;;;;;23.29;67.82;97200.06;6157176;23;20194;-88
2022/06/23 00:59:14;;;;;;;2.90;2.60;;;;;;;23.29;67.76;97194.06;6130340;23;20182;-87
2022/06/23 01:01:52;;;;;;;4.77;2.50;;;;;;;23.29;67.63;97186.38;6152814;23;20178;-87
2022/06/23 01:04:48;;;;;;;3.07;2.50;;;;;;;23.29;67.68;97187.25;6129875;23;20624;-88
2022/06/23 01:07:37;;;;;;;4.33;2.30;;;;;;;23.29;67.70;97184.69;6155961;23;20198;-87
2022/06/23 01:10:38;;;;;;;2.77;2.33;;;;;;;22.94;67.63;97118.22;6156966;23;20162;-88
2022/06/23 01:13:22;;;;;;;2.50;2.30;;;;;;;23.30;68.00;97190.69;6133613;23;20603;-87
2022/06/23 01:15:59;;;;;;;2.60;2.40;;;;;;;22.91;67.96;97129.28;6130023;23;20218;-87
2022/06/23 01:18:33;;;;;;;2.93;2.60;;;;;;;23.29;67.78;97194.06;6130588;23;20222;-88
2022/06/23 01:21:24;;;;;;;3.40;2.67;;;;;;;23.24;67.96;97193.13;6155753;23;20162;-87
2022/06/23 01:24:01;;;;;;;3.30;2.97;;;;;;;23.30;68.06;97199.22;6127228;23;20174;-87
2022/06/23 01:26:42;;;;;;;3.03;2.73;;;;;;;23.30;68.24;97196.66;6155552;23;20244;-87
2022/06/23 01:29:15;;;;;;;3.83;2.77;;;;;;;23.12;68.13;97165.53;6156688;23;20606;-88
2022/06/23 01:31:43;;;;;;;2.50;2.30;;;;;;;23.29;68.31;97202.63;6155027;23;20178;-87
2022/06/23 01:34:58;;;;;;;3.00;2.70;;;;;;;23.29;68.28;97205.19;6154456;23;20620;-87
2022/06/23 01:37:39;;;;;;;2.67;2.47;;;;;;;23.03;68.05;97157.69;6079346;23;20206;-87
2022/06/23 01:40:12;;;;;;;3.10;2.80;;;;;;;23.29;68.26;97205.19;6154143;23;20479;-88
2022/06/23 01:42:53;;;;;;;3.10;2.37;;;;;;;22.95;68.17;97150.72;6155169;23;20174;-88
2022/06/23 01:45:45;;;;;;;2.97;2.67;;;;;;;23.29;68.20;97205.19;6154519;23;20209;-87
2022/06/23 01:48:13;;;;;;;2.87;2.40;;;;;;;23.29;68.40;97199.19;6154206;23;20194;-87
2022/06/23 01:50:49;;;;;;;3.63;2.83;;;;;;;23.07;68.32;97156.88;6154113;23;20174;-87
2022/06/23 01:53:16;;;;;;;3.47;2.70;;;;;;;23.30;68.39;97195.81;6154162;23;20240;-88
2022/06/23 01:56:03;;;;;;;3.00;2.63;;;;;;;23.29;68.48;97186.38;6154554;23;20198;-87
2022/06/23 01:58:38;;;;;;;2.80;2.50;;;;;;;23.21;68.48;97183.63;6154463;23;20174;-87
2022/06/23 02:01:04;;;;;;;4.80;3.03;;;;;;;23.03;68.77;97144.88;6153645;23;20193;-87
2022/06/23 02:03:37;;;;;;;2.67;2.47;;;;;;;22.64;68.29;97086.94;6155445;23;20175;-88
2022/06/23 02:06:21;;;;;;;4.83;2.50;;;;;;;23.19;68.39;97176.78;6153892;23;20202;-88
2022/06/23 02:09:19;;;;;;;3.47;2.57;;;;;;;22.94;68.69;97133.59;6154245;23;20174;-87
2022/06/23 02:11:48;;;;;;;2.47;2.27;;;;;;;22.96;68.32;97137.03;6131802;23;20194;-87
2022/06/23 02:14:26;;;;;;;2.60;2.40;;;;;;;23.30;68.30;97188.13;6154169;23;20256;-87
2022/06/23 02:16:58;;;;;;;4.00;2.80;;;;;;;23.30;68.19;97193.25;6153576;23;20197;-87
2022/06/23 02:19:25;;;;;;;2.70;2.50;;;;;;;23.30;68.24;97190.69;6155730;23;20154;-88
2022/06/23 02:22:09;;;;;;;3.20;2.40;;;;;;;23.30;68.12;97181.25;6155810;23;20178;-88
2022/06/23 02:24:46;;;;;;;3.20;2.50;;;;;;;22.90;68.16;97117.31;6155738;23;20186;-88
2022/06/23 02:27:32;;;;;;;2.90;2.60;;;;;;;23.30;68.11;97190.69;6156047;23;20209;-88
2022/06/23 02:30:10;;;;;;;4.20;2.67;;;;;;;22.69;68.21;97087.88;6155960;23;20194;-87
2022/06/23 02:32:40;;;;;;;3.00;2.70;;;;;;;23.29;68.23;97194.94;6129838;23;20178;-87
2022/06/23 02:35:21;;;;;;;2.70;2.50;;;;;;;23.29;68.30;97194.94;6155863;23;20264;-88
2022/06/23 02:37:56;;;;;;;2.47;2.27;;;;;;;22.77;68.45;97111.94;6156206;23;20166;-88
2022/06/23 02:40:33;;;;;;;2.93;2.60;;;;;;;22.80;68.46;97117.13;6128194;23;20178;-87
2022/06/23 02:43:05;;;;;;;3.00;2.60;;;;;;;22.90;68.42;97135.25;6155007;23;20166;-87
2022/06/23 02:45:55;;;;;;;2.70;2.47;;;;;;;23.30;68.59;97200.94;6129051;23;20202;-87
2022/06/23 02:48:59;;;;;;;3.20;2.83;;;;;;;23.28;68.48;97198.34;6153774;23;20179;-88
2022/06/23 02:51:41;;;;;;;2.83;2.50;;;;;;;23.29;68.56;97207.75;6155242;23;20170;-87
2022/06/23 02:54:33;;;;;;;2.67;2.47;;;;;;;23.30;68.53;97212.03;6154828;23;20202;-88
2022/06/23 02:57:27;;;;;;;2.90;2.70;;;;;;;23.29;68.66;97206.88;6154295;23;20209;-87
2022/06/23 03:00:06;;;;;;;3.73;2.70;;;;;;;23.29;68.87;97209.44;6155632;23;20513;-87
2022/06/23 03:02:51;;;;;;;2.43;2.20;;;;;;;23.29;68.70;97212.00;6155770;23;20180;-87
2022/06/23 03:05:27;;;;;;;4.33;2.97;;;;;;;22.69;68.79;97110.94;6155614;23;20201;-87
2022/06/23 03:08:27;;;;;;;2.80;2.60;;;;;;;23.29;68.80;97217.13;6155994;23;20198;-87
2022/06/23 03:11:17;;;;;;;2.77;2.33;;;;;;;22.73;68.53;97121.28;6155823;23;20259;-88
2022/06/23 03:13:49;;;;;;;2.93;2.63;;;;;;;23.29;68.59;97217.13;6107807;23;20167;-87
2022/06/23 03:16:18;;;;;;;2.63;2.30;;;;;;;23.10;68.66;97186.88;6127879;23;20199;-87
2022/06/23 03:19:02;;;;;;;2.60;2.40;;;;;;;23.21;68.79;97211.00;6128866;23;20175;-88
2022/06/23 03:22:01;;;;;;;2.50;2.27;;;;;;;23.30;68.69;97224.84;6107072;23;20163;-87
2022/06/23 03:24:31;;;;;;;2.20;2.10;;;;;;;22.65;68.43;97112.56;6147302;23;20224;-88
2022/06/23 03:27:03;;;;;;;2.63;2.43;;;;;;;23.12;68.77;97188.59;6153828;23;20237;-87
2022/06/23 03:29:38;;;;;;;2.60;2.40;;;;;;;23.30;68.65;97216.31;6152781;23;20158;-88
2022/06/23 03:32:11;;;;;;;2.57;2.37;;;;;;;22.79;68.56;97130.75;6153448;23;20661;-88
2022/06/23 03:35:00;;;;;;;2.70;2.23;;;;;;;23.30;68.88;97218.88;6155209;23;20162;-88
2022/06/23 03:37:32;;;;;;;2.83;2.53;;;;;;;23.29;68.85;97215.44;6155814;23;20177;-87
2022/06/23 03:42:55;;;;;;;2.90;2.20;;;;;;;22.98;68.65;97171.28;6153725;23;20569;-88
2022/06/23 03:45:30;;;;;;;2.60;2.40;;;;;;;23.29;68.81;97218.00;6153485;23;20240;-87
2022/06/23 03:48:12;;;;;;;2.60;2.40;;;;;;;23.09;68.70;97198.81;6154481;23;20182;-88
2022/06/23 03:50:59;;;;;;;2.70;2.50;;;;;;;23.00;69.01;97196.06;6131950;23;20159;-88
2022/06/23 03:53:47;;;;;;;3.47;2.90;;;;;;;23.30;69.06;97250.50;6153067;23;20162;-88
2022/06/23 03:56:25;;;;;;;2.93;2.63;;;;;;;23.30;69.05;97249.66;6152656;23;20198;-87
2022/06/23 03:59:15;;;;;;;2.97;2.60;;;;;;;23.30;69.08;97262.47;6128989;23;20181;-88
2022/06/23 04:01:56;;;;;;;2.70;2.50;;;;;;;23.12;68.90;97234.75;6128891;23;20189;-87
2022/06/23 04:04:45;;;;;;;3.10;2.80;;;;;;;23.24;68.94;97252.13;6130330;23;20166;-87
2022/06/23 04:07:47;;;;;;;2.20;2.10;;;;;;;23.29;68.89;97266.72;6154571;23;20287;-88
2022/06/23 04:10:33;;;;;;;3.10;2.80;;;;;;;23.06;69.00;97226.06;6132383;23;20636;-87
2022/06/23 04:13:16;;;;;;;2.50;2.30;;;;;;;23.15;68.73;97246.78;6132230;23;20166;-87
2022/06/23 04:15:43;;;;;;;2.40;2.20;;;;;;;23.24;68.62;97258.06;6130782;23;20202;-88
2022/06/23 04:18:17;;;;;;;2.80;2.60;;;;;;;23.30;68.85;97275.28;6153617;23;20556;-88
2022/06/23 04:20:47;;;;;;;2.80;2.60;;;;;;;23.30;68.79;97281.28;6130298;23;20634;-88
2022/06/23 04:23:21;;;;;;;3.20;2.80;;;;;;;23.30;68.74;97283.00;6130254;23;20166;-87
2022/06/23 04:25:58;;;;;;;2.60;2.40;;;;;;;23.29;68.98;97287.25;6153376;23;20202;-87
2022/06/23 04:28:33;;;;;;;2.90;2.70;;;;;;;23.29;68.92;97299.19;6154358;23;20539;-87
2022/06/23 04:31:01;;;;;;;2.43;2.23;;;;;;;23.01;68.62;97255.91;6152269;23;20162;-88
2022/06/23 04:33:28;;;;;;;2.67;2.30;;;;;;;22.83;68.89;97215.38;6154158;23;20182;-88
2022/06/23 04:35:58;;;;;;;2.80;2.40;;;;;;;22.69;68.80;97185.22;6154619;23;20199;-88
2022/06/23 04:38:47;;;;;;;3.57;2.20;;;;;;;22.92;68.91;97232.66;6156394;23;20159;-87
2022/06/23 04:41:27;;;;;;;3.63;2.57;;;;;;;22.83;68.86;97217.09;6129553;23;20638;-87
2022/06/23 04:43:59;;;;;;;2.73;2.50;;;;;;;22.99;69.00;97250.75;6157651;23;20159;-88
2022/06/23 04:46:31;;;;;;;2.57;2.37;;;;;;;23.00;68.87;97252.47;6133118;23;20206;-88
2022/06/23 04:49:01;;;;;;;2.40;2.20;;;;;;;22.68;69.07;97201.44;6132817;23;20198;-88
2022/06/23 04:51:37;;;;;;;2.57;2.37;;;;;;;23.23;68.88;97296.47;6133088;23;20179;-87
2022/06/23 04:54:09;;;;;;;2.70;2.50;;;;;;;23.31;69.03;97307.78;6134684;23;20158;-88
2022/06/23 04:56:49;;;;;;;2.60;2.40;;;;;;;23.07;69.00;97261.16;6155336;23;20207;-88
2022/06/23 04:59:40;;;;;;;2.53;2.33;;;;;;;23.30;69.07;97304.34;6156580;23;20216;-88
2022/06/23 05:02:36;;;;;;;2.97;2.50;;;;;;;23.31;69.08;97311.22;6157799;23;20193;-88
2022/06/23 05:05:23;;;;;;;4.43;2.70;;;;;;;22.13;69.44;97098.69;6156816;23;20717;-88
2022/06/23 05:07:50;;;;;;;2.97;2.60;;;;;;;23.32;69.10;97301.81;6107314;23;20241;-88
2022/06/23 05:10:23;;;;;;;2.90;2.70;;;;;;;23.32;69.32;97304.38;6157083;23;20178;-88
2022/06/23 05:12:57;;;;;;;2.83;2.63;;;;;;;23.02;69.26;97250.81;6130194;23;20233;-88
2022/06/23 05:15:31;;;;;;;2.87;2.67;;;;;;;23.04;69.21;97245.72;6131749;23;20222;-88
2022/06/23 05:18:05;;;;;;;2.90;2.70;;;;;;;22.44;69.24;97147.16;6132942;23;20497;-89
2022/06/23 05:20:39;;;;;;;2.13;2.03;;;;;;;23.17;69.22;97268.16;6131652;23;20178;-88
2022/06/23 05:23:05;;;;;;;2.70;2.50;;;;;;;22.97;69.40;97236.16;6160046;23;20158;-88
2022/06/23 05:25:41;;;;;;;2.60;2.40;;;;;;;23.11;69.34;97265.47;6158321;23;20194;-88
2022/06/23 05:28:22;;;;;;;3.13;2.83;;;;;;;23.20;69.25;97275.91;6132393;23;20198;-88
2022/06/23 05:30:55;;;;;;;2.60;2.40;;;;;;;23.33;69.19;97298.44;6136187;23;20167;-88
2022/06/23 05:33:27;;;;;;;2.63;2.43;;;;;;;23.14;69.48;97268.09;6158445;23;20504;-88
2022/06/23 05:36:03;;;;;;;2.80;2.60;;;;;;;22.86;69.44;97218.00;6162920;23;20517;-89
2022/06/23 05:38:50;;;;;;;2.60;2.40;;;;;;;23.34;69.42;97311.28;6164113;23;20158;-88
2022/06/23 05:41:28;;;;;;;4.43;2.53;;;;;;;22.76;69.32;97207.56;6138434;23;20169;-88
2022/06/23 05:43:56;;;;;;;3.40;2.70;;;;;;;23.03;69.61;97256.78;6160389;23;20166;-89
2022/06/23 05:46:23;;;;;;;6.57;3.47;;;;;;;23.35;70.33;97307.00;6158810;23;20194;-89
2022/06/23 05:49:21;;;;;;;5.30;3.80;;;;;;;22.89;71.63;97220.63;6155290;23;20301;-88
2022/06/23 05:51:52;;;;;;;8.63;4.83;;;;;;;23.37;72.99;97310.47;6153066;23;20522;-88
2022/06/23 05:54:35;;;;;;;11.80;4.80;;;;;;;22.81;74.75;97214.53;6133032;23;20178;-88
2022/06/23 05:57:10;;;;;;;13.30;5.50;;;;;;;22.64;75.88;97190.25;6132314;23;20778;-88
2022/06/23 05:59:53;;;;;;;11.47;6.20;;;;;;;23.41;78.21;97317.38;6133746;23;20162;-88
2022/06/23 06:02:53;;;;;;;10.90;6.27;;;;;;;23.08;77.49;97261.16;6159017;23;20159;-87
2022/06/23 06:18:03;;;;;;;11.60;8.40;;;;;;;23.47;79.06;97321.78;6157077;23;20153;-94
2022/06/23 06:21:16;;;;;;;9.57;8.37;;;;;;;23.48;78.83;97320.91;6132169;23;20139;-93
2022/06/23 09:40:18;;;;;;;7.50;6.73;;;;;;;23.65;78.23;97240.00;6186970;23;20171;-93
2022/06/23 09:43:24;;;;;;;8.20;6.73;;;;;;;23.64;78.02;97246.81;6184433;23;20177;-93
2022/06/23 09:46:23;;;;;;;7.20;6.50;;;;;;;23.64;78.30;97241.69;6185093;23;20146;-93
2022/06/23 09:50:11;;;;;;;6.87;6.17;;;;;;;19.41;77.59;96527.66;6185210;23;20170;-94
2022/06/23 09:53:36;;;;;;;7.07;6.37;;;;;;;23.63;78.06;97236.53;6185334;23;20166;-93
2022/06/23 10:22:35;;;;;;;9.27;6.40;;;;;;;23.65;78.24;97224.59;6185982;23;20170;-93
2022/06/23 10:26:09;;;;;;;8.80;6.33;;;;;;;23.64;78.09;97222.84;6163205;23;20143;-92
2022/06/23 10:37:11;;;;;;;7.80;7.00;;;;;;;22.31;77.98;96982.19;6185862;23;20181;-92
2022/06/23 10:40:18;;;;;;;8.07;6.70;;;;;;;23.64;77.84;97215.16;6185317;23;20143;-94
2022/06/23 10:43:51;;;;;;;10.03;6.50;;;;;;;18.54;78.09;96328.78;6047871;23;20134;-93
2022/06/23 10:46:48;;;;;;;9.30;6.57;;;;;;;19.30;78.57;96480.69;6042095;23;20173;-93
2022/06/23 10:52:12;;;;;;;8.40;6.27;;;;;;;23.65;78.79;97199.78;6181015;23;20169;-93
2022/06/23 11:00:17;;;;;;;7.33;6.60;;;;;;;18.91;78.40;96370.31;6172986;23;20185;-94
2022/06/23 11:03:04;;;;;;;9.17;7.17;;;;;;;23.66;79.38;97183.59;6137375;23;20143;-93
2022/06/23 11:05:34;;;;;;;7.23;6.53;;;;;;;23.67;79.79;97187.88;6160974;23;20146;-93
2022/06/23 11:08:21;;;;;;;9.83;6.93;;;;;;;19.79;78.99;96520.78;6160826;23;20161;-93
2022/06/23 11:13:45;;;;;;;9.70;6.93;;;;;;;23.68;79.44;97181.03;6184912;23;20205;-92
2022/06/23 11:16:33;;;;;;;10.93;6.77;;;;;;;23.67;79.27;97182.72;6161264;23;20150;-94
2022/06/23 11:19:29;;;;;;;10.40;6.73;;;;;;;19.20;79.17;96412.53;6171509;23;20182;-90
2022/06/23 11:24:50;;;;;;;9.00;6.50;;;;;;;23.69;79.63;97169.94;6181751;23;20158;-91
2022/06/23 11:27:56;;;;;;;11.17;6.73;;;;;;;23.67;79.29;97167.34;6162839;23;20198;-94
2022/06/23 11:31:06;;;;;;;10.60;7.23;;;;;;;23.67;79.42;97171.59;6161358;23;20150;-93
2022/06/23 12:07:34;;;;;;;8.10;6.10;;;;;;;23.02;79.10;97032.06;6167784;23;20266;-91
2022/06/23 12:10:14;;;;;;;6.50;5.90;;;;;;;23.68;78.74;97132.28;6160549;23;20153;-91
2022/06/23 12:12:43;;;;;;;11.83;6.80;;;;;;;22.82;78.69;97008.69;6155763;23;20182;-91
2022/06/23 12:15:11;;;;;;;11.50;6.40;;;;;;;22.54;78.50;96934.81;6132619;23;20166;-91
2022/06/23 12:17:47;;;;;;;8.53;5.87;;;;;;;22.86;78.44;96995.09;6157606;23;20186;-91
2022/06/23 12:20:25;;;;;;;6.87;5.90;;;;;;;23.33;78.37;97076.19;6156549;23;20174;-91
2022/06/23 12:23:21;;;;;;;7.33;5.93;;;;;;;23.67;78.22;97123.72;6134603;23;20161;-92
2022/06/23 12:26:02;;;;;;;9.90;6.43;;;;;;;23.30;78.44;97054.78;6155285;23;20186;-92
2022/06/23 12:28:40;;;;;;;8.43;6.23;;;;;;;23.68;78.38;97114.34;6158471;23;20185;-92
2022/06/23 12:31:26;;;;;;;10.13;5.77;;;;;;;23.45;78.67;97072.09;6181036;23;20150;-91
2022/06/23 12:33:56;;;;;;;8.37;6.33;;;;;;;23.69;79.21;97108.34;6159090;23;20154;-92
2022/06/23 12:36:34;;;;;;;8.50;5.93;;;;;;;23.69;79.12;97110.91;6180928;23;20174;-93
2022/06/23 12:39:06;;;;;;;12.77;5.87;;;;;;;22.90;79.80;96993.44;6131735;23;20151;-91
2022/06/23 12:41:41;;;;;;;8.70;6.20;;;;;;;22.96;79.50;96973.91;6132496;23;20155;-92
2022/06/23 12:44:44;;;;;;;8.53;6.10;;;;;;;23.70;79.21;97094.66;6156055;23;20146;-91
2022/06/23 12:47:35;;;;;;;7.17;5.40;;;;;;;22.76;79.33;96928.31;6131483;23;20228;-92
2022/06/23 12:50:09;;;;;;;17.10;5.90;;;;;;;23.70;79.10;97089.53;6158974;23;20166;-92
2022/06/23 12:53:13;;;;;;;8.43;5.93;;;;;;;23.70;79.00;97086.97;6131677;23;20151;-92
2022/06/23 12:56:17;;;;;;;9.60;6.17;;;;;;;23.70;79.07;97076.72;6180601;23;20182;-91
2022/06/23 12:58:53;;;;;;;7.13;5.60;;;;;;;22.83;79.28;96927.59;6155954;23;20150;-92
2022/06/23 13:01:40;;;;;;;8.63;6.30;;;;;;;23.68;79.18;97074.13;6155879;23;20175;-92
2022/06/23 13:04:35;;;;;;;7.83;5.77;;;;;;;22.90;79.20;96940.50;6181040;23;20154;-91
2022/06/23 13:07:28;;;;;;;6.90;5.30;;;;;;;22.51;79.21;96875.00;6148670;23;20186;-91
2022/06/23 13:09:56;;;;;;;9.90;6.27;;;;;;;23.69;79.14;97075.00;6145553;23;20174;-92
2022/06/23 13:12:40;;;;;;;9.43;5.87;;;;;;;22.56;78.98;96876.78;6181202;23;20146;-92
2022/06/23 13:15:14;;;;;;;10.70;6.00;;;;;;;22.98;79.48;96964.53;6155903;23;20154;-91
2022/06/23 13:17:46;;;;;;;8.60;5.83;;;;;;;23.68;79.33;97065.59;6155430;23;20174;-91
2022/06/23 13:20:21;;;;;;;10.93;6.07;;;;;;;23.69;78.98;97063.03;6132298;23;20150;-91
2022/06/23 13:23:01;;;;;;;6.80;5.50;;;;;;;23.04;79.97;96964.59;6180862;23;20158;-91
2022/06/23 13:25:33;;;;;;;7.77;5.60;;;;;;;22.63;79.37;96867.50;6131967;23;20146;-92
2022/06/23 13:28:01;;;;;;;12.73;6.37;;;;;;;22.46;79.71;96853.53;6132465;23;20166;-92
2022/06/23 13:30:46;;;;;;;9.47;6.13;;;;;;;22.61;79.45;96859.81;6157628;23;20206;-91
2022/06/23 13:33:23;;;;;;;10.57;5.80;;;;;;;23.23;79.33;96965.75;6131962;23;20154;-92
2022/06/23 13:36:13;;;;;;;7.30;5.87;;;;;;;22.79;79.27;96885.69;6156992;23;20202;-92
2022/06/23 13:38:48;;;;;;;9.10;6.00;;;;;;;;;;6145811;23;20226;-91
2022/06/23 13:41:29;;;;;;;10.17;6.17;;;;;;;22.60;79.45;96862.34;6155764;23;20154;-91
2022/06/23 13:44:30;;;;;;;10.93;5.90;;;;;;;22.92;79.09;96900.38;6132279;23;20147;-91
2022/06/23 13:47:07;;;;;;;8.17;5.43;;;;;;;23.35;79.54;96992.47;6160195;23;20181;-91
2022/06/23 13:49:42;;;;;;;10.23;5.70;;;;;;;23.69;79.33;97029.69;6132711;23;20170;-91
2022/06/23 13:52:44;;;;;;;9.40;5.90;;;;;;;22.92;79.55;96900.38;6180742;23;20185;-92
2022/06/23 13:55:18;;;;;;;11.70;5.80;;;;;;;23.68;79.17;97029.66;6141660;23;20205;-91
2022/06/23 13:58:10;;;;;;;11.27;5.73;;;;;;;22.93;79.20;96881.63;6131333;23;20199;-91
2022/06/23 14:00:52;;;;;;;8.23;6.20;;;;;;;23.29;79.45;96946.22;6155707;23;20157;-92
2022/06/23 14:03:53;;;;;;;8.23;5.97;;;;;;;23.69;79.58;97004.03;6155553;23;20150;-92
2022/06/23 14:06:29;;;;;;;7.67;5.73;;;;;;;23.70;79.55;97004.88;6110813;23;20190;-92
2022/06/23 14:08:58;;;;;;;10.63;5.97;;;;;;;23.56;79.24;96984.19;6180049;23;20174;-90
2022/06/23 14:11:33;;;;;;;9.87;6.13;;;;;;;23.71;79.41;96988.66;6131802;23;20154;-92
2022/06/23 14:14:12;;;;;;;6.20;5.60;;;;;;;23.70;79.46;97003.19;6180468;23;20162;-90
2022/06/23 14:16:51;;;;;;;6.10;5.37;;;;;;;23.70;79.30;96982.66;6154226;23;20194;-92
2022/06/23 14:20:00;;;;;;;8.87;5.97;;;;;;;23.71;79.70;96988.66;6180593;23;20171;-92
2022/06/23 14:22:34;;;;;;;11.27;5.87;;;;;;;23.71;79.50;96973.25;6141661;23;20475;-92
2022/06/23 14:25:06;;;;;;;8.63;5.33;;;;;;;21.99;78.86;96686.50;6179168;23;20177;-93
2022/06/23 14:27:49;;;;;;;11.33;5.93;;;;;;;23.71;79.47;96974.09;6131723;23;20219;-92
2022/06/23 14:30:27;;;;;;;8.50;5.90;;;;;;;23.31;78.92;96894.97;6129586;23;20191;-90
2022/06/23 14:33:10;;;;;;;10.80;5.83;;;;;;;23.72;79.38;96964.72;6153942;23;20146;-91
2022/06/23 14:36:07;;;;;;;10.03;5.33;;;;;;;23.72;79.19;96957.00;6179881;23;20143;-92
2022/06/23 14:38:42;;;;;;;8.77;6.40;;;;;;;23.05;79.24;96842.47;6153843;23;20185;-91
2022/06/23 14:41:37;;;;;;;10.73;5.33;;;;;;;23.71;79.15;96956.13;6155484;23;20173;-90
2022/06/23 14:44:13;;;;;;;10.73;5.50;;;;;;;23.71;79.30;96948.44;6178249;23;20181;-89
2022/06/23 14:47:21;;;;;;;10.07;5.83;;;;;;;23.71;79.15;96945.88;6147418;23;20202;-89
2022/06/23 14:49:53;;;;;;;9.00;5.67;;;;;;;23.71;79.77;96974.09;6049111;23;20201;-89
2022/06/23 14:52:34;;;;;;;12.03;5.60;;;;;;;23.15;80.84;96845.16;6129017;23;20186;-89
2022/06/23 14:55:27;;;;;;;11.90;5.70;;;;;;;23.72;81.10;96928.78;6170598;23;20177;-90
2022/06/23 14:57:56;;;;;;;14.33;6.27;;;;;;;23.74;81.40;96945.06;6128609;23;20143;-92
2022/06/23 15:01:03;;;;;;;13.17;5.60;;;;;;;22.68;81.01;96753.19;6179516;23;20166;-91
2022/06/23 15:03:47;;;;;;;10.00;5.87;;;;;;;23.76;80.78;96936.53;6154557;23;20158;-91
2022/06/23 15:06:50;;;;;;;14.43;6.77;;;;;;;23.23;80.10;96840.13;6155075;23;20231;-91
2022/06/23 15:09:49;;;;;;;8.83;5.90;;;;;;;23.36;79.13;96860.00;6115766;23;20185;-92
2022/06/23 15:12:38;;;;;;;14.47;6.20;;;;;;;23.76;79.09;96918.56;6118027;23;20234;-89
2022/06/23 15:15:31;;;;;;;11.27;5.73;;;;;;;23.77;78.32;96919.44;6162719;23;20166;-90
2022/06/23 15:18:12;;;;;;;12.30;5.50;;;;;;;23.30;76.04;96831.72;6155798;23;20610;-89
2022/06/23 15:20:43;;;;;;;9.17;5.10;;;;;;;23.58;75.27;96881.59;6098534;23;20176;-89
2022/06/23 15:23:14;;;;;;;8.40;5.10;;;;;;;23.43;75.19;96861.78;6099543;23;20160;-89
2022/06/23 15:26:20;;;;;;;9.23;5.30;;;;;;;23.74;74.78;96909.16;6101216;23;20207;-89
2022/06/23 15:28:58;;;;;;;10.10;5.13;;;;;;;23.74;74.92;96909.16;6058905;23;20199;-89
2022/06/23 15:31:28;;;;;;;8.70;5.00;;;;;;;23.25;74.87;96820.53;6096427;23;20658;-88
2022/06/23 15:34:08;;;;;;;11.07;5.40;;;;;;;23.72;74.81;96903.13;6073214;23;20608;-89
2022/06/23 15:36:46;;;;;;;8.57;5.10;;;;;;;23.72;74.93;96892.88;6102648;23;20210;-89
2022/06/23 15:39:31;;;;;;;9.70;5.23;;;;;;;23.72;74.64;96903.13;6104109;23;20175;-89
2022/06/23 15:41:59;;;;;;;9.40;5.53;;;;;;;23.71;74.88;96901.41;6114273;23;20164;-89
2022/06/23 15:44:26;;;;;;;11.07;5.07;;;;;;;23.70;75.25;96903.13;6111058;23;20167;-89
2022/06/23 15:47:06;;;;;;;8.73;4.77;;;;;;;23.70;74.93;96902.25;6111448;23;20202;-89
2022/06/23 15:49:36;;;;;;;7.07;4.70;;;;;;;23.70;75.26;96894.56;6108444;23;20188;-89
2022/06/23 15:52:16;;;;;;;8.90;5.23;;;;;;;23.24;75.37;96821.41;6083980;23;20183;-89
2022/06/23 15:54:47;;;;;;;10.30;5.60;;;;;;;23.70;75.09;96880.03;6104201;23;20187;-90
2022/06/23 15:57:16;;;;;;;6.90;4.90;;;;;;;22.90;74.83;96745.78;6079066;23;20223;-90
2022/06/23 15:59:53;;;;;;;6.63;4.70;;;;;;;22.93;74.57;96750.94;6106572;23;20182;-89
2022/06/23 16:02:34;;;;;;;9.40;5.43;;;;;;;22.98;74.53;96761.25;6115387;23;20167;-90
2022/06/23 16:05:07;;;;;;;8.60;5.10;;;;;;;23.27;74.70;96803.47;6115037;23;20242;-90
2022/06/23 16:07:35;;;;;;;9.77;5.50;;;;;;;23.17;74.42;96793.91;6113787;23;20208;-88
2022/06/23 16:10:19;;;;;;;10.43;5.17;;;;;;;23.01;74.25;96767.25;6109338;23;20196;-90
2022/06/23 16:12:45;;;;;;;7.30;5.20;;;;;;;23.16;74.56;96781.94;6106652;23;20164;-89
2022/06/23 16:15:29;;;;;;;6.97;4.80;;;;;;;23.67;74.62;96874.88;6100595;23;20183;-88
2022/06/23 16:17:57;;;;;;;9.60;5.27;;;;;;;23.14;74.30;96770.81;6075092;23;20164;-88
2022/06/23 16:20:26;;;;;;;8.83;4.90;;;;;;;22.93;74.17;96743.25;6108666;23;20176;-89
2022/06/23 16:23:07;;;;;;;9.67;5.00;;;;;;;23.65;74.73;96856.03;6114745;23;20179;-90
2022/06/23 16:25:40;;;;;;;7.70;4.80;;;;;;;23.02;75.17;96761.28;6103194;23;20171;-89
2022/06/23 16:28:39;;;;;;;10.43;5.27;;;;;;;23.66;75.39;96856.88;6080939;23;20164;-89
2022/06/23 16:31:23;;;;;;;9.17;4.93;;;;;;;23.32;75.45;96797.53;6090494;23;20180;-89
2022/06/23 16:34:35;;;;;;;8.93;4.73;;;;;;;22.70;75.48;96684.88;6110038;23;20170;-89
2022/06/23 16:37:22;;;;;;;8.47;4.37;;;;;;;23.68;75.36;96852.66;6115995;23;20231;-89
2022/06/23 16:40:07;;;;;;;6.57;4.73;;;;;;;23.68;75.58;96850.91;6109299;23;20180;-89
2022/06/23 16:42:39;;;;;;;7.73;4.67;;;;;;;23.67;75.17;96849.22;6108794;23;20175;-88
2022/06/23 16:45:18;;;;;;;9.13;4.97;;;;;;;23.39;74.93;96808.75;6083890;23;20163;-89
2022/06/23 16:47:53;;;;;;;7.60;5.07;;;;;;;23.67;74.96;96843.22;6107651;23;20210;-89
2022/06/23 16:50:38;;;;;;;7.47;5.10;;;;;;;23.67;74.88;96840.66;6077685;23;20184;-87
2022/06/23 16:53:42;;;;;;;7.83;4.60;;;;;;;23.66;74.71;96844.94;6073249;23;20199;-88
2022/06/23 16:56:13;;;;;;;10.60;4.80;;;;;;;23.66;74.68;96839.81;6059971;23;20286;-88
2022/06/23 16:58:57;;;;;;;7.10;4.67;;;;;;;23.67;74.97;96838.94;6115985;23;20164;-89
2022/06/23 17:01:28;;;;;;;8.00;4.83;;;;;;;23.67;74.76;96844.06;6121391;23;20374;-89
2022/06/23 17:04:13;;;;;;;8.27;4.83;;;;;;;23.12;74.95;96745.16;6119382;23;20152;-90
2022/06/23 17:06:48;;;;;;;10.47;5.20;;;;;;;23.01;73.58;96731.34;6115784;23;20203;-89
2022/06/23 17:09:37;;;;;;;9.17;4.63;;;;;;;23.67;74.06;96838.94;6091319;23;20183;-89
2022/06/23 17:12:34;;;;;;;7.97;4.80;;;;;;;23.19;74.08;96751.22;6112524;23;20180;-89
2022/06/23 17:15:09;;;;;;;9.57;4.93;;;;;;;22.96;74.10;96714.22;6063393;23;20164;-90
2022/06/23 17:17:40;;;;;;;10.50;5.17;;;;;;;23.27;74.09;96759.91;6112814;23;20226;-89
2022/06/23 17:20:07;;;;;;;6.77;4.97;;;;;;;23.42;73.92;96791.66;6111938;23;20203;-90
2022/06/23 17:22:39;;;;;;;10.73;4.80;;;;;;;23.55;73.97;96807.16;6114910;23;20163;-90
2022/06/23 17:25:06;;;;;;;8.23;4.60;;;;;;;23.55;74.13;96820.00;6115326;23;20152;-89
2022/06/23 17:27:46;;;;;;;7.17;4.50;;;;;;;23.62;74.01;96827.78;6088935;23;20207;-89
2022/06/23 17:30:23;;;;;;;6.70;4.47;;;;;;;23.62;74.14;96822.63;6113375;23;20527;-89